createdAt,value
2022-10-26T00:04:33.184Z,4112.1
2022-10-26T00:11:36.748Z,4113
2022-10-26T00:17:27.208Z,4110.8
2022-10-26T00:23:12.141Z,4109.4
2022-10-26T00:28:57.083Z,4110.5
2022-10-26T00:34:32.272Z,4109.6
2022-10-26T00:40:27.021Z,4111
2022-10-26T00:46:22.771Z,4106.9
2022-10-26T00:51:58.868Z,4107.9
2022-10-26T00:57:34.425Z,4109.4
2022-10-26T01:03:31.395Z,4108.4
2022-10-26T01:09:06.665Z,4107.9
2022-10-26T01:15:44.672Z,4108.6
2022-10-26T01:21:26.143Z,4107.9
2022-10-26T01:27:52.683Z,4109.4
2022-10-26T01:33:56.443Z,4106.3
2022-10-26T01:39:40.455Z,4105.8
2022-10-26T01:45:22.811Z,4102.7
2022-10-26T01:51:18.473Z,4104.4
2022-10-26T01:56:53.845Z,4106.9
2022-10-26T02:02:42.128Z,4102.7
2022-10-26T02:08:35.240Z,4102.7
2022-10-26T02:14:10.870Z,4104.1
2022-10-26T02:19:52.423Z,4102.7
2022-10-26T02:25:27.556Z,4102.2
2022-10-26T02:31:12.478Z,4102.2
2022-10-26T02:36:47.482Z,4102.2
2022-10-26T02:42:22.316Z,4102.2
2022-10-26T02:48:03.272Z,4101.7
2022-10-26T02:54:02.960Z,4099.9
2022-10-26T02:59:56.731Z,4099.9
2022-10-26T03:05:34.306Z,4099.9
2022-10-26T03:11:17.962Z,4101.9
2022-10-26T03:17:00.226Z,4098.6
2022-10-26T03:22:55.847Z,4099.6
2022-10-26T03:28:30.989Z,4097.9
2022-10-26T03:34:14.490Z,4099.4
2022-10-26T03:39:52.117Z,4097.9
2022-10-26T03:45:27.207Z,4097.4
2022-10-26T03:51:16.938Z,4099.2
2022-10-26T03:56:56.290Z,4098.9
2022-10-26T04:02:34.096Z,4098.2
2022-10-26T04:08:13.428Z,4096.5
2022-10-26T04:14:10.238Z,4095.4
2022-10-26T04:19:57.788Z,4097.6
2022-10-26T04:25:34.786Z,4097.6
2022-10-26T04:31:09.794Z,4095.7
2022-10-26T04:37:05.450Z,4094.9
2022-10-26T04:42:54.146Z,4094.9
2022-10-26T04:48:50.297Z,4094.4
2022-10-26T04:54:33.103Z,4094.5
2022-10-26T05:00:09.065Z,4095.2
2022-10-26T05:05:51.906Z,4094
2022-10-26T05:11:26.986Z,4094.4
2022-10-26T05:17:04.762Z,4094.2
2022-10-26T05:22:45.557Z,4094.2
2022-10-26T05:29:06.698Z,4095.4
2022-10-26T05:34:54.615Z,4093
2022-10-26T05:40:29.505Z,4089.8
2022-10-26T05:46:04.881Z,4092.9
2022-10-26T05:51:39.621Z,4091.4
2022-10-26T05:57:17.728Z,4091.4
2022-10-26T06:02:56.963Z,4093.9
2022-10-26T06:08:43.619Z,4093
2022-10-26T06:14:35.084Z,4090.7
2022-10-26T06:20:10.954Z,4088.7
2022-10-26T06:25:45.797Z,4089.8
2022-10-26T06:31:30.866Z,4090.9
2022-10-26T06:37:12.495Z,4090.4
2022-10-26T06:42:48.244Z,4089.5
2022-10-26T06:49:10.213Z,4088.2
2022-10-26T06:54:45.618Z,4085.8
2022-10-26T07:00:33.667Z,4086.7
2022-10-26T07:12:04.518Z,4088.3
2022-10-26T07:17:46.968Z,4086.5
2022-10-26T07:23:38.422Z,4085.7
2022-10-26T07:29:23.403Z,4087
2022-10-26T07:35:08.170Z,4086.7
2022-10-26T07:40:47.571Z,4083.8
2022-10-26T07:46:24.246Z,4082.5
2022-10-26T07:51:59.016Z,4086.3
2022-10-26T07:57:54.768Z,4084.7
2022-10-26T08:04:00.958Z,4086.5
2022-10-26T08:09:40.259Z,4085.2
2022-10-26T08:15:27.111Z,4085.5
2022-10-26T08:22:00.399Z,4084.2
2022-10-26T08:27:41.572Z,4085.2
2022-10-26T08:33:17.337Z,4088
2022-10-26T08:38:55.772Z,4083
2022-10-26T08:44:30.594Z,4083.1
2022-10-26T08:50:13.646Z,4087.7
2022-10-26T08:55:48.511Z,4084.8
2022-10-26T09:01:25.053Z,4082.3
2022-10-26T09:07:01.486Z,4084.5
2022-10-26T09:12:52.746Z,4086
2022-10-26T09:18:29.373Z,4085
2022-10-26T09:24:21.319Z,4080.8
2022-10-26T09:30:04.289Z,4084.5
2022-10-26T09:35:39.588Z,4081.3
2022-10-26T09:41:20.590Z,4080.8
2022-10-26T09:47:02.867Z,4079.5
2022-10-26T09:52:49.896Z,4083
2022-10-26T09:58:26.183Z,4082
2022-10-26T10:04:22.266Z,4076.4
2022-10-26T10:10:07.843Z,4079.5
2022-10-26T10:15:47.628Z,4079.3
2022-10-26T10:21:32.632Z,4078
2022-10-26T10:27:12.073Z,4080
2022-10-26T10:32:54.095Z,4079.6
2022-10-26T10:39:41.605Z,4081
2022-10-26T10:45:25.132Z,4078.6
2022-10-26T10:51:18.366Z,4082
2022-10-26T10:56:56.114Z,4080
2022-10-26T11:02:32.229Z,4076.3
2022-10-26T11:08:15.439Z,4078.1
2022-10-26T11:13:56.705Z,4080.3
2022-10-26T11:19:36.922Z,4076.9
2022-10-26T11:25:17.111Z,4076.8
2022-10-26T11:30:52.313Z,4078.6
2022-10-26T11:36:27.415Z,4077.5
2022-10-26T11:42:03.351Z,4078.3
2022-10-26T11:48:04.167Z,4078
2022-10-26T11:53:40.431Z,4078
2022-10-26T11:59:18.593Z,4078
2022-10-26T12:04:53.916Z,4074.9
2022-10-26T12:10:30.892Z,4077.1
2022-10-26T12:16:14.099Z,4079.1
2022-10-26T12:21:58.157Z,4076.1
2022-10-26T12:27:38.476Z,4075.6
2022-10-26T12:33:13.714Z,4074.9
2022-10-26T12:39:00.508Z,4075.8
2022-10-26T12:44:57.516Z,4073.8
2022-10-26T12:50:36.753Z,4077.3
2022-10-26T12:56:12.811Z,4073.9
2022-10-26T13:02:04.003Z,4073.1
2022-10-26T13:07:39.723Z,4074.1
2022-10-26T13:13:15.262Z,4073.8
2022-10-26T13:18:58.593Z,4074.8
2022-10-26T13:24:34.779Z,4071.8
2022-10-26T13:30:18.608Z,4072.1
2022-10-26T13:35:56.518Z,4071.9
2022-10-26T13:41:45.620Z,4073.4
2022-10-26T13:47:28.559Z,4073.1
2022-10-26T13:53:09.061Z,4071.3
2022-10-26T13:58:46.799Z,4073.4
2022-10-26T14:04:21.865Z,4069.7
2022-10-26T14:10:17.544Z,4071.8
2022-10-26T14:15:57.925Z,4069.6
2022-10-26T14:22:03.008Z,4070.6
2022-10-26T14:27:55.523Z,4070.1
2022-10-26T14:33:41.899Z,4069.2
2022-10-26T14:39:35.768Z,4069.7
2022-10-26T14:45:51.607Z,4067.6
2022-10-26T14:51:32.051Z,4068.1
2022-10-26T14:57:08.955Z,4071.8
2022-10-26T15:02:45.043Z,4067.7
2022-10-26T15:09:16.587Z,4069.6
2022-10-26T15:14:52.300Z,4069.9
2022-10-26T15:20:33.621Z,4067.9
2022-10-26T15:26:08.657Z,4068.1
2022-10-26T15:31:43.710Z,4067.4
2022-10-26T15:37:29.576Z,4065.7
2022-10-26T15:43:13.790Z,4066.2
2022-10-26T15:48:56.653Z,4068.1
2022-10-26T15:54:48.128Z,4069.2
2022-10-26T16:00:58.795Z,4066.1
2022-10-26T16:06:44.549Z,4067.1
2022-10-26T16:12:57.563Z,4065.7
2022-10-26T16:18:34.369Z,4064.6
2022-10-26T16:24:10.318Z,4064.4
2022-10-26T16:29:50.751Z,4065.2
2022-10-26T16:36:58.658Z,4062.4
2022-10-26T16:42:34.212Z,4062.5
2022-10-26T16:48:30.331Z,4061.7
2022-10-26T16:54:15.281Z,4065.4
2022-10-26T16:59:51.433Z,4062.9
2022-10-26T17:06:33.047Z,4063.6
2022-10-26T17:12:23.628Z,4062.4
2022-10-26T17:18:12.807Z,4062.2
2022-10-26T17:24:04.373Z,4061.2
2022-10-26T17:29:43.631Z,4060.2
2022-10-26T17:35:28.157Z,4059
2022-10-26T17:41:05.474Z,4060
2022-10-26T17:46:40.675Z,4059
2022-10-26T17:52:27.656Z,4059
2022-10-26T17:58:15.168Z,4059.5
2022-10-26T18:04:23.256Z,4059.2
2022-10-26T18:11:01.888Z,4057.5
2022-10-26T18:17:01.796Z,4055.2
2022-10-26T18:24:27.684Z,4057.4
2022-10-26T18:30:03.947Z,4056.9
2022-10-26T18:35:48.625Z,4056.7
2022-10-26T18:41:46.349Z,4052.8
2022-10-26T18:47:21.446Z,4056.7
2022-10-26T18:53:04.431Z,4056.9
2022-10-26T18:58:43.154Z,4055.5
2022-10-26T19:04:23.423Z,4053.5
2022-10-26T19:10:22.379Z,4055
2022-10-26T19:16:09.680Z,4050.7
2022-10-26T19:21:52.265Z,4051.7
2022-10-26T19:27:33.948Z,4053.7
2022-10-26T19:33:10.583Z,4052.3
2022-10-26T19:39:02.071Z,4050.5
2022-10-26T19:44:37.115Z,4050
2022-10-26T19:50:12.137Z,4048.6
2022-10-26T19:56:04.188Z,4050
2022-10-26T20:01:41.948Z,4048.6
2022-10-26T20:07:28.671Z,4049.6
2022-10-26T20:13:04.836Z,4047.5
2022-10-26T20:18:50.418Z,4049.8
2022-10-26T20:24:27.175Z,4047.6
2022-10-26T20:30:19.395Z,4046
2022-10-26T20:36:04.469Z,4049
2022-10-26T20:42:01.459Z,4046
2022-10-26T20:47:34.290Z,4050.1
2022-10-26T20:53:15.248Z,4048.1
2022-10-26T20:59:05.459Z,4045.1
2022-10-26T21:04:54.164Z,4045
2022-10-26T21:10:40.402Z,4044.6
2022-10-26T21:16:16.283Z,4045.6
2022-10-26T21:21:53.888Z,4045.1
2022-10-26T21:27:34.286Z,4044.6
2022-10-26T21:33:09.512Z,4045.3
2022-10-26T21:39:05.410Z,4044.1
2022-10-26T21:44:52.978Z,4044.6
2022-10-26T21:50:30.328Z,4046.5
2022-10-26T21:56:10.599Z,4044.8
2022-10-26T22:01:48.297Z,4044.8
2022-10-26T22:07:46.397Z,4043.8
2022-10-26T22:13:30.377Z,4042.8
2022-10-26T22:19:06.488Z,4042.9
2022-10-26T22:24:41.252Z,4042.8
2022-10-26T22:30:16.143Z,4042.1
2022-10-26T22:35:55.050Z,4042.1
2022-10-26T22:41:51.726Z,4040.6
2022-10-26T22:47:36.062Z,4042.8
2022-10-26T22:53:16.060Z,4042.6
2022-10-26T22:58:55.234Z,4042.9
2022-10-26T23:04:39.392Z,4043.8
2022-10-26T23:10:17.622Z,4041.9
2022-10-26T23:16:05.573Z,4042.6
2022-10-26T23:21:47.508Z,4041.4
2022-10-26T23:27:28.752Z,4039.9
2022-10-26T23:33:13.452Z,4040.9
2022-10-26T23:38:48.915Z,4040.6
2022-10-26T23:44:44.568Z,4041.1
2022-10-26T23:50:25.390Z,4041.9
2022-10-26T23:56:05.360Z,4042.6
